KSUX/SUX METAR and TAF weather

Enter ICAO airport designator
Station Type Date Time Source
KSUX METAR 2021/08/01 16:52 UTC NOAA

KSUX 011652Z 03015KT 10SM CLR 27/09 A3023 RMK AO2 SLP229 T02720089


Station Type Date Time Source
KSUX Decoded METAR 2021/08/01 16:52 UTC NOAA

SIOUX GATEWAY AIRPORT, IA, United States (KSUX) 42-23N 96-23W 338M
Aug 01, 2021 - 12:52 PM EDT / 2021.08.01 1652 UTC
Wind: from the NNE (030 degrees) at 17 MPH (15 KT):0
Visibility: 10 mile(s):0
Sky conditions: clear
Temperature: 81.0 F (27.2 C)
Dew Point: 48.0 F (8.9 C)
Relative Humidity: 31%
Pressure (altimeter): 30.23 in. Hg (1023 hPa)
ob: KSUX 011652Z 03015KT 10SM CLR 27/09 A3023 RMK AO2 SLP229 T02720089
cycle: 17

Station Type Date Time Source
KSUX TAF 2021/08/01 16:09 UTC NOAA

TAF
AMD KSUX 011607Z 0116/0212 36010G18KT P6SM SCT250
FM020100 02005KT P6SM SCT250

Example: see airport list